sensor_id;sensor_type;location;lat;lon;timestamp;P1;durP1;ratioP1;P2;durP2;ratioP2
12214;SDS011;6170;42.206;24.142;2023-02-28T00:00:48;9.07;;;5.60;;
12214;SDS011;6170;42.206;24.142;2023-02-28T00:03:15;13.45;;;5.60;;
12214;SDS011;6170;42.206;24.142;2023-02-28T00:05:42;9.63;;;5.28;;
12214;SDS011;6170;42.206;24.142;2023-02-28T00:08:09;9.55;;;5.13;;
12214;SDS011;6170;42.206;24.142;2023-02-28T00:10:36;9.30;;;4.63;;
12214;SDS011;6170;42.206;24.142;2023-02-28T00:13:03;9.80;;;4.97;;
12214;SDS011;6170;42.206;24.142;2023-02-28T00:15:33;8.05;;;5.15;;
12214;SDS011;6170;42.206;24.142;2023-02-28T00:18:00;8.85;;;4.82;;
12214;SDS011;6170;42.206;24.142;2023-02-28T00:20:27;8.50;;;5.28;;
12214;SDS011;6170;42.206;24.142;2023-02-28T00:22:54;9.02;;;5.70;;
12214;SDS011;6170;42.206;24.142;2023-02-28T00:25:22;11.35;;;5.20;;
12214;SDS011;6170;42.206;24.142;2023-02-28T00:27:50;10.45;;;5.30;;
12214;SDS011;6170;42.206;24.142;2023-02-28T00:30:17;10.25;;;4.65;;
12214;SDS011;6170;42.206;24.142;2023-02-28T00:32:47;13.15;;;5.75;;
12214;SDS011;6170;42.206;24.142;2023-02-28T00:35:14;11.57;;;5.00;;
12214;SDS011;6170;42.206;24.142;2023-02-28T00:37:41;8.60;;;5.28;;
12214;SDS011;6170;42.206;24.142;2023-02-28T00:40:09;11.73;;;5.05;;
12214;SDS011;6170;42.206;24.142;2023-02-28T00:42:37;13.55;;;5.68;;
12214;SDS011;6170;42.206;24.142;2023-02-28T00:45:04;10.65;;;4.60;;
12214;SDS011;6170;42.206;24.142;2023-02-28T00:47:33;10.63;;;5.15;;
12214;SDS011;6170;42.206;24.142;2023-02-28T00:50:01;7.47;;;4.90;;
12214;SDS011;6170;42.206;24.142;2023-02-28T00:52:28;9.23;;;5.00;;
12214;SDS011;6170;42.206;24.142;2023-02-28T00:54:55;10.52;;;5.45;;
12214;SDS011;6170;42.206;24.142;2023-02-28T00:57:22;11.75;;;5.40;;
12214;SDS011;6170;42.206;24.142;2023-02-28T00:59:49;13.52;;;5.82;;
12214;SDS011;6170;42.206;24.142;2023-02-28T01:02:15;10.23;;;5.78;;
12214;SDS011;6170;42.206;24.142;2023-02-28T01:04:43;11.30;;;5.93;;
12214;SDS011;6170;42.206;24.142;2023-02-28T01:07:11;11.88;;;5.38;;
12214;SDS011;6170;42.206;24.142;2023-02-28T01:09:39;13.40;;;6.65;;
12214;SDS011;6170;42.206;24.142;2023-02-28T01:12:06;10.73;;;6.05;;
12214;SDS011;6170;42.206;24.142;2023-02-28T01:14:34;13.30;;;5.82;;
12214;SDS011;6170;42.206;24.142;2023-02-28T01:17:01;13.60;;;6.20;;
12214;SDS011;6170;42.206;24.142;2023-02-28T01:19:27;12.77;;;6.13;;
12214;SDS011;6170;42.206;24.142;2023-02-28T01:21:54;17.15;;;6.68;;
12214;SDS011;6170;42.206;24.142;2023-02-28T01:24:22;11.20;;;6.40;;
12214;SDS011;6170;42.206;24.142;2023-02-28T01:26:49;12.43;;;6.03;;
12214;SDS011;6170;42.206;24.142;2023-02-28T01:29:16;14.82;;;6.88;;
12214;SDS011;6170;42.206;24.142;2023-02-28T01:31:43;12.93;;;6.63;;
12214;SDS011;6170;42.206;24.142;2023-02-28T01:34:09;13.48;;;6.65;;
12214;SDS011;6170;42.206;24.142;2023-02-28T01:36:36;13.10;;;6.85;;
12214;SDS011;6170;42.206;24.142;2023-02-28T01:39:03;15.15;;;6.72;;
12214;SDS011;6170;42.206;24.142;2023-02-28T01:41:32;13.00;;;6.68;;
12214;SDS011;6170;42.206;24.142;2023-02-28T01:44:02;10.82;;;6.72;;
12214;SDS011;6170;42.206;24.142;2023-02-28T01:46:30;14.98;;;7.63;;
12214;SDS011;6170;42.206;24.142;2023-02-28T01:49:00;13.38;;;6.95;;
12214;SDS011;6170;42.206;24.142;2023-02-28T01:51:31;18.30;;;7.35;;
12214;SDS011;6170;42.206;24.142;2023-02-28T01:54:05;14.65;;;7.55;;
12214;SDS011;6170;42.206;24.142;2023-02-28T01:56:40;13.93;;;8.00;;
12214;SDS011;6170;42.206;24.142;2023-02-28T01:59:12;14.50;;;7.55;;
12214;SDS011;6170;42.206;24.142;2023-02-28T02:01:43;16.67;;;7.95;;
12214;SDS011;6170;42.206;24.142;2023-02-28T02:04:10;13.15;;;7.10;;
12214;SDS011;6170;42.206;24.142;2023-02-28T02:06:37;16.08;;;7.53;;
12214;SDS011;6170;42.206;24.142;2023-02-28T02:09:06;18.92;;;8.13;;
12214;SDS011;6170;42.206;24.142;2023-02-28T02:11:33;15.98;;;7.88;;
12214;SDS011;6170;42.206;24.142;2023-02-28T02:17:10;14.27;;;8.13;;
12214;SDS011;6170;42.206;24.142;2023-02-28T02:19:53;12.48;;;7.88;;
12214;SDS011;6170;42.206;24.142;2023-02-28T02:23:02;15.82;;;7.45;;
12214;SDS011;6170;42.206;24.142;2023-02-28T02:25:44;14.07;;;7.95;;
12214;SDS011;6170;42.206;24.142;2023-02-28T02:28:22;14.10;;;8.15;;
12214;SDS011;6170;42.206;24.142;2023-02-28T02:31:17;18.20;;;9.02;;
12214;SDS011;6170;42.206;24.142;2023-02-28T02:37:00;15.63;;;7.85;;
12214;SDS011;6170;42.206;24.142;2023-02-28T02:39:36;13.73;;;8.18;;
12214;SDS011;6170;42.206;24.142;2023-02-28T02:42:14;12.60;;;7.63;;
12214;SDS011;6170;42.206;24.142;2023-02-28T02:44:48;17.98;;;8.73;;
12214;SDS011;6170;42.206;24.142;2023-02-28T02:47:22;16.13;;;8.02;;
12214;SDS011;6170;42.206;24.142;2023-02-28T02:49:55;16.95;;;8.30;;
12214;SDS011;6170;42.206;24.142;2023-02-28T02:52:28;18.00;;;7.78;;
12214;SDS011;6170;42.206;24.142;2023-02-28T02:54:59;16.83;;;8.25;;
12214;SDS011;6170;42.206;24.142;2023-02-28T02:57:29;11.25;;;6.93;;
12214;SDS011;6170;42.206;24.142;2023-02-28T02:59:59;14.95;;;6.65;;
12214;SDS011;6170;42.206;24.142;2023-02-28T03:02:30;13.93;;;7.03;;
12214;SDS011;6170;42.206;24.142;2023-02-28T03:05:01;17.42;;;7.53;;
12214;SDS011;6170;42.206;24.142;2023-02-28T03:07:31;15.57;;;7.10;;
12214;SDS011;6170;42.206;24.142;2023-02-28T03:09:58;17.13;;;7.32;;
12214;SDS011;6170;42.206;24.142;2023-02-28T03:12:27;11.82;;;7.03;;
12214;SDS011;6170;42.206;24.142;2023-02-28T03:15:16;15.93;;;7.25;;
12214;SDS011;6170;42.206;24.142;2023-02-28T03:17:53;14.25;;;7.35;;
12214;SDS011;6170;42.206;24.142;2023-02-28T03:20:32;16.88;;;8.38;;
12214;SDS011;6170;42.206;24.142;2023-02-28T03:23:10;15.32;;;7.65;;
12214;SDS011;6170;42.206;24.142;2023-02-28T03:25:46;12.75;;;7.55;;
12214;SDS011;6170;42.206;24.142;2023-02-28T03:28:22;11.98;;;7.50;;
12214;SDS011;6170;42.206;24.142;2023-02-28T03:30:58;13.38;;;7.28;;
12214;SDS011;6170;42.206;24.142;2023-02-28T03:33:29;16.33;;;7.88;;
12214;SDS011;6170;42.206;24.142;2023-02-28T03:36:01;16.52;;;7.88;;
12214;SDS011;6170;42.206;24.142;2023-02-28T03:38:31;12.73;;;7.25;;
12214;SDS011;6170;42.206;24.142;2023-02-28T03:41:04;14.32;;;7.00;;
12214;SDS011;6170;42.206;24.142;2023-02-28T03:43:37;15.98;;;7.40;;
12214;SDS011;6170;42.206;24.142;2023-02-28T03:46:10;14.68;;;7.15;;
12214;SDS011;6170;42.206;24.142;2023-02-28T03:48:44;12.35;;;6.80;;
12214;SDS011;6170;42.206;24.142;2023-02-28T03:51:17;18.98;;;8.23;;
12214;SDS011;6170;42.206;24.142;2023-02-28T03:53:49;12.80;;;7.22;;
12214;SDS011;6170;42.206;24.142;2023-02-28T03:56:19;19.02;;;7.32;;
12214;SDS011;6170;42.206;24.142;2023-02-28T03:58:49;10.05;;;6.53;;
12214;SDS011;6170;42.206;24.142;2023-02-28T04:01:23;13.10;;;6.68;;
12214;SDS011;6170;42.206;24.142;2023-02-28T04:03:53;11.75;;;6.30;;
12214;SDS011;6170;42.206;24.142;2023-02-28T04:06:21;11.70;;;6.22;;
12214;SDS011;6170;42.206;24.142;2023-02-28T04:08:49;13.40;;;5.88;;
12214;SDS011;6170;42.206;24.142;2023-02-28T04:11:18;13.50;;;5.68;;
12214;SDS011;6170;42.206;24.142;2023-02-28T04:13:48;12.32;;;7.30;;
12214;SDS011;6170;42.206;24.142;2023-02-28T04:16:15;22.15;;;10.18;;
12214;SDS011;6170;42.206;24.142;2023-02-28T04:18:42;22.48;;;9.85;;
12214;SDS011;6170;42.206;24.142;2023-02-28T04:21:09;22.23;;;10.07;;
12214;SDS011;6170;42.206;24.142;2023-02-28T04:23:37;27.30;;;11.18;;
12214;SDS011;6170;42.206;24.142;2023-02-28T04:26:04;22.10;;;11.27;;
12214;SDS011;6170;42.206;24.142;2023-02-28T04:28:31;24.50;;;10.32;;
12214;SDS011;6170;42.206;24.142;2023-02-28T04:30:59;24.20;;;10.02;;
12214;SDS011;6170;42.206;24.142;2023-02-28T04:33:28;21.30;;;10.73;;
12214;SDS011;6170;42.206;24.142;2023-02-28T04:35:59;36.83;;;11.00;;
12214;SDS011;6170;42.206;24.142;2023-02-28T04:38:27;22.40;;;11.40;;
12214;SDS011;6170;42.206;24.142;2023-02-28T04:40:57;18.65;;;11.07;;
12214;SDS011;6170;42.206;24.142;2023-02-28T04:43:25;23.80;;;11.88;;
12214;SDS011;6170;42.206;24.142;2023-02-28T04:45:52;23.75;;;11.13;;
12214;SDS011;6170;42.206;24.142;2023-02-28T04:48:21;44.20;;;16.23;;
12214;SDS011;6170;42.206;24.142;2023-02-28T04:50:48;25.25;;;11.68;;
12214;SDS011;6170;42.206;24.142;2023-02-28T04:53:15;31.92;;;11.38;;
12214;SDS011;6170;42.206;24.142;2023-02-28T04:55:42;31.30;;;10.43;;
12214;SDS011;6170;42.206;24.142;2023-02-28T04:58:11;16.92;;;10.13;;
12214;SDS011;6170;42.206;24.142;2023-02-28T05:00:38;21.52;;;10.35;;
12214;SDS011;6170;42.206;24.142;2023-02-28T05:03:05;24.02;;;10.77;;
12214;SDS011;6170;42.206;24.142;2023-02-28T05:05:31;27.30;;;11.48;;
12214;SDS011;6170;42.206;24.142;2023-02-28T05:07:59;25.30;;;12.35;;
12214;SDS011;6170;42.206;24.142;2023-02-28T05:10:25;21.25;;;11.77;;
12214;SDS011;6170;42.206;24.142;2023-02-28T05:12:52;21.23;;;11.48;;
12214;SDS011;6170;42.206;24.142;2023-02-28T05:15:20;25.10;;;11.65;;
12214;SDS011;6170;42.206;24.142;2023-02-28T05:17:47;28.55;;;11.98;;
12214;SDS011;6170;42.206;24.142;2023-02-28T05:20:14;24.00;;;11.00;;
12214;SDS011;6170;42.206;24.142;2023-02-28T05:22:42;18.15;;;9.80;;
12214;SDS011;6170;42.206;24.142;2023-02-28T05:25:10;29.13;;;11.60;;
12214;SDS011;6170;42.206;24.142;2023-02-28T05:27:38;31.95;;;10.63;;
12214;SDS011;6170;42.206;24.142;2023-02-28T05:30:06;19.20;;;11.35;;
12214;SDS011;6170;42.206;24.142;2023-02-28T05:32:37;28.83;;;12.25;;
12214;SDS011;6170;42.206;24.142;2023-02-28T05:35:08;28.63;;;12.48;;
12214;SDS011;6170;42.206;24.142;2023-02-28T05:37:35;29.20;;;11.93;;
12214;SDS011;6170;42.206;24.142;2023-02-28T05:40:03;29.42;;;13.90;;
12214;SDS011;6170;42.206;24.142;2023-02-28T05:42:32;40.28;;;16.75;;
12214;SDS011;6170;42.206;24.142;2023-02-28T05:44:59;37.13;;;16.63;;
12214;SDS011;6170;42.206;24.142;2023-02-28T05:47:25;37.78;;;16.33;;
12214;SDS011;6170;42.206;24.142;2023-02-28T05:49:54;35.95;;;19.27;;
12214;SDS011;6170;42.206;24.142;2023-02-28T05:52:20;44.92;;;17.92;;
12214;SDS011;6170;42.206;24.142;2023-02-28T05:54:47;61.20;;;23.52;;
12214;SDS011;6170;42.206;24.142;2023-02-28T05:57:14;74.22;;;32.38;;
12214;SDS011;6170;42.206;24.142;2023-02-28T05:59:41;56.03;;;25.13;;
12214;SDS011;6170;42.206;24.142;2023-02-28T06:02:08;53.00;;;20.98;;
12214;SDS011;6170;42.206;24.142;2023-02-28T06:04:38;49.25;;;18.90;;
12214;SDS011;6170;42.206;24.142;2023-02-28T06:07:07;39.58;;;15.95;;
12214;SDS011;6170;42.206;24.142;2023-02-28T06:09:34;41.70;;;15.85;;
12214;SDS011;6170;42.206;24.142;2023-02-28T06:12:02;33.58;;;15.50;;
12214;SDS011;6170;42.206;24.142;2023-02-28T06:14:30;28.88;;;13.45;;
12214;SDS011;6170;42.206;24.142;2023-02-28T06:16:58;32.00;;;13.65;;
12214;SDS011;6170;42.206;24.142;2023-02-28T06:19:25;28.55;;;13.32;;
12214;SDS011;6170;42.206;24.142;2023-02-28T06:21:53;32.63;;;14.60;;
12214;SDS011;6170;42.206;24.142;2023-02-28T06:24:23;29.85;;;13.88;;
12214;SDS011;6170;42.206;24.142;2023-02-28T06:26:53;26.73;;;15.32;;
12214;SDS011;6170;42.206;24.142;2023-02-28T06:29:19;35.80;;;16.23;;
12214;SDS011;6170;42.206;24.142;2023-02-28T06:31:46;37.05;;;15.77;;
12214;SDS011;6170;42.206;24.142;2023-02-28T06:34:13;27.95;;;14.95;;
12214;SDS011;6170;42.206;24.142;2023-02-28T06:36:41;30.88;;;15.55;;
12214;SDS011;6170;42.206;24.142;2023-02-28T06:39:08;31.60;;;15.95;;
12214;SDS011;6170;42.206;24.142;2023-02-28T06:41:37;31.67;;;15.88;;
12214;SDS011;6170;42.206;24.142;2023-02-28T06:44:05;27.45;;;15.35;;
12214;SDS011;6170;42.206;24.142;2023-02-28T06:46:38;27.55;;;15.00;;
12214;SDS011;6170;42.206;24.142;2023-02-28T06:49:05;31.63;;;15.32;;
12214;SDS011;6170;42.206;24.142;2023-02-28T06:51:34;26.38;;;14.88;;
12214;SDS011;6170;42.206;24.142;2023-02-28T06:54:01;31.48;;;17.05;;
12214;SDS011;6170;42.206;24.142;2023-02-28T06:56:28;27.52;;;14.90;;
12214;SDS011;6170;42.206;24.142;2023-02-28T06:58:57;34.53;;;15.40;;
12214;SDS011;6170;42.206;24.142;2023-02-28T07:01:23;32.70;;;16.55;;
12214;SDS011;6170;42.206;24.142;2023-02-28T07:03:50;31.92;;;15.80;;
12214;SDS011;6170;42.206;24.142;2023-02-28T07:06:18;31.52;;;16.10;;
12214;SDS011;6170;42.206;24.142;2023-02-28T07:08:45;35.40;;;16.70;;
12214;SDS011;6170;42.206;24.142;2023-02-28T07:11:11;34.80;;;16.08;;
12214;SDS011;6170;42.206;24.142;2023-02-28T07:13:38;30.77;;;16.08;;
12214;SDS011;6170;42.206;24.142;2023-02-28T07:16:07;31.35;;;16.20;;
12214;SDS011;6170;42.206;24.142;2023-02-28T07:18:38;37.85;;;17.13;;
12214;SDS011;6170;42.206;24.142;2023-02-28T07:21:06;31.92;;;17.40;;
12214;SDS011;6170;42.206;24.142;2023-02-28T07:23:35;36.75;;;17.52;;
12214;SDS011;6170;42.206;24.142;2023-02-28T07:26:04;34.08;;;17.20;;
12214;SDS011;6170;42.206;24.142;2023-02-28T07:28:31;35.60;;;16.73;;
12214;SDS011;6170;42.206;24.142;2023-02-28T07:31:02;34.15;;;19.48;;
12214;SDS011;6170;42.206;24.142;2023-02-28T07:33:32;32.08;;;17.63;;
12214;SDS011;6170;42.206;24.142;2023-02-28T07:36:00;32.33;;;17.23;;
12214;SDS011;6170;42.206;24.142;2023-02-28T07:38:27;32.83;;;17.70;;
12214;SDS011;6170;42.206;24.142;2023-02-28T07:40:54;30.42;;;17.50;;
12214;SDS011;6170;42.206;24.142;2023-02-28T07:43:21;34.80;;;17.13;;
12214;SDS011;6170;42.206;24.142;2023-02-28T07:45:47;30.38;;;18.27;;
12214;SDS011;6170;42.206;24.142;2023-02-28T07:48:14;36.00;;;17.58;;
12214;SDS011;6170;42.206;24.142;2023-02-28T07:50:42;27.83;;;17.17;;
12214;SDS011;6170;42.206;24.142;2023-02-28T07:53:09;33.60;;;17.73;;
12214;SDS011;6170;42.206;24.142;2023-02-28T07:55:36;37.83;;;18.77;;
12214;SDS011;6170;42.206;24.142;2023-02-28T07:58:03;46.83;;;19.23;;
12214;SDS011;6170;42.206;24.142;2023-02-28T08:00:29;37.15;;;19.88;;
12214;SDS011;6170;42.206;24.142;2023-02-28T08:02:57;42.92;;;19.88;;
12214;SDS011;6170;42.206;24.142;2023-02-28T08:05:24;36.25;;;19.23;;
12214;SDS011;6170;42.206;24.142;2023-02-28T08:07:52;35.42;;;18.98;;
12214;SDS011;6170;42.206;24.142;2023-02-28T08:10:19;36.60;;;20.27;;
12214;SDS011;6170;42.206;24.142;2023-02-28T08:12:46;35.97;;;19.02;;
12214;SDS011;6170;42.206;24.142;2023-02-28T08:15:13;47.53;;;19.77;;
12214;SDS011;6170;42.206;24.142;2023-02-28T08:17:39;39.10;;;20.23;;
12214;SDS011;6170;42.206;24.142;2023-02-28T08:20:07;42.50;;;23.17;;
12214;SDS011;6170;42.206;24.142;2023-02-28T08:22:35;35.97;;;19.92;;
12214;SDS011;6170;42.206;24.142;2023-02-28T08:25:04;39.58;;;20.83;;
12214;SDS011;6170;42.206;24.142;2023-02-28T08:27:32;36.58;;;18.90;;
12214;SDS011;6170;42.206;24.142;2023-02-28T08:29:59;34.65;;;19.55;;
12214;SDS011;6170;42.206;24.142;2023-02-28T08:32:26;40.92;;;21.05;;
12214;SDS011;6170;42.206;24.142;2023-02-28T08:34:52;39.25;;;20.63;;
12214;SDS011;6170;42.206;24.142;2023-02-28T08:37:19;42.53;;;22.05;;
12214;SDS011;6170;42.206;24.142;2023-02-28T08:39:46;41.50;;;20.88;;
12214;SDS011;6170;42.206;24.142;2023-02-28T08:42:14;36.92;;;20.70;;
12214;SDS011;6170;42.206;24.142;2023-02-28T08:44:41;48.65;;;23.30;;
12214;SDS011;6170;42.206;24.142;2023-02-28T08:47:08;43.50;;;23.95;;
12214;SDS011;6170;42.206;24.142;2023-02-28T08:49:34;43.03;;;21.90;;
12214;SDS011;6170;42.206;24.142;2023-02-28T08:52:02;45.60;;;20.75;;
12214;SDS011;6170;42.206;24.142;2023-02-28T08:54:29;42.95;;;22.17;;
12214;SDS011;6170;42.206;24.142;2023-02-28T08:56:57;40.13;;;22.55;;
12214;SDS011;6170;42.206;24.142;2023-02-28T08:59:25;44.05;;;23.33;;
12214;SDS011;6170;42.206;24.142;2023-02-28T09:01:52;50.38;;;25.27;;
12214;SDS011;6170;42.206;24.142;2023-02-28T09:04:19;46.38;;;23.77;;
12214;SDS011;6170;42.206;24.142;2023-02-28T09:06:45;48.25;;;24.60;;
12214;SDS011;6170;42.206;24.142;2023-02-28T09:09:13;44.20;;;24.33;;
12214;SDS011;6170;42.206;24.142;2023-02-28T09:11:40;47.50;;;24.60;;
12214;SDS011;6170;42.206;24.142;2023-02-28T09:14:07;53.90;;;24.98;;
12214;SDS011;6170;42.206;24.142;2023-02-28T09:16:36;62.75;;;30.77;;
12214;SDS011;6170;42.206;24.142;2023-02-28T09:19:02;60.10;;;33.15;;
12214;SDS011;6170;42.206;24.142;2023-02-28T09:21:29;49.53;;;27.88;;
12214;SDS011;6170;42.206;24.142;2023-02-28T09:23:56;54.60;;;30.45;;
12214;SDS011;6170;42.206;24.142;2023-02-28T09:26:23;57.97;;;29.45;;
12214;SDS011;6170;42.206;24.142;2023-02-28T09:28:53;60.08;;;28.30;;
12214;SDS011;6170;42.206;24.142;2023-02-28T09:31:21;61.35;;;29.17;;
12214;SDS011;6170;42.206;24.142;2023-02-28T09:33:51;60.88;;;29.75;;
12214;SDS011;6170;42.206;24.142;2023-02-28T09:36:21;57.53;;;30.30;;
12214;SDS011;6170;42.206;24.142;2023-02-28T09:38:48;51.38;;;28.45;;
12214;SDS011;6170;42.206;24.142;2023-02-28T09:41:18;54.22;;;29.83;;
12214;SDS011;6170;42.206;24.142;2023-02-28T09:43:47;47.22;;;28.23;;
12214;SDS011;6170;42.206;24.142;2023-02-28T09:46:21;48.88;;;28.20;;
12214;SDS011;6170;42.206;24.142;2023-02-28T09:48:55;49.33;;;28.88;;
12214;SDS011;6170;42.206;24.142;2023-02-28T09:51:37;49.08;;;28.63;;
12214;SDS011;6170;42.206;24.142;2023-02-28T09:54:12;58.92;;;30.63;;
12214;SDS011;6170;42.206;24.142;2023-02-28T09:56:44;61.15;;;29.85;;
12214;SDS011;6170;42.206;24.142;2023-02-28T09:59:16;51.75;;;29.73;;
12214;SDS011;6170;42.206;24.142;2023-02-28T10:01:56;53.28;;;28.10;;
12214;SDS011;6170;42.206;24.142;2023-02-28T10:04:43;53.28;;;26.00;;
12214;SDS011;6170;42.206;24.142;2023-02-28T10:07:18;51.45;;;26.83;;
12214;SDS011;6170;42.206;24.142;2023-02-28T10:09:56;52.45;;;27.70;;
12214;SDS011;6170;42.206;24.142;2023-02-28T10:12:25;50.08;;;29.08;;
12214;SDS011;6170;42.206;24.142;2023-02-28T10:14:54;41.40;;;25.48;;
12214;SDS011;6170;42.206;24.142;2023-02-28T10:17:25;50.67;;;26.38;;
12214;SDS011;6170;42.206;24.142;2023-02-28T10:20:00;52.95;;;27.73;;
12214;SDS011;6170;42.206;24.142;2023-02-28T10:22:34;49.53;;;27.55;;
12214;SDS011;6170;42.206;24.142;2023-02-28T10:25:15;53.53;;;28.25;;
12214;SDS011;6170;42.206;24.142;2023-02-28T10:27:44;59.22;;;28.45;;
12214;SDS011;6170;42.206;24.142;2023-02-28T10:30:11;48.45;;;28.85;;
12214;SDS011;6170;42.206;24.142;2023-02-28T10:32:39;53.58;;;28.83;;
12214;SDS011;6170;42.206;24.142;2023-02-28T10:35:14;47.60;;;27.75;;
12214;SDS011;6170;42.206;24.142;2023-02-28T10:37:43;49.03;;;27.02;;
12214;SDS011;6170;42.206;24.142;2023-02-28T10:40:25;51.88;;;27.17;;
12214;SDS011;6170;42.206;24.142;2023-02-28T10:42:55;52.73;;;26.87;;
12214;SDS011;6170;42.206;24.142;2023-02-28T10:45:23;54.08;;;26.55;;
12214;SDS011;6170;42.206;24.142;2023-02-28T10:47:52;49.75;;;25.02;;
12214;SDS011;6170;42.206;24.142;2023-02-28T10:50:29;57.15;;;26.70;;
12214;SDS011;6170;42.206;24.142;2023-02-28T10:53:07;49.92;;;25.42;;
12214;SDS011;6170;42.206;24.142;2023-02-28T10:55:42;54.03;;;24.20;;
12214;SDS011;6170;42.206;24.142;2023-02-28T10:58:22;54.10;;;27.30;;
12214;SDS011;6170;42.206;24.142;2023-02-28T11:00:50;55.63;;;27.05;;
12214;SDS011;6170;42.206;24.142;2023-02-28T11:03:24;55.13;;;28.30;;
12214;SDS011;6170;42.206;24.142;2023-02-28T11:05:56;52.50;;;27.15;;
12214;SDS011;6170;42.206;24.142;2023-02-28T11:08:23;54.65;;;27.15;;
12214;SDS011;6170;42.206;24.142;2023-02-28T11:10:53;55.72;;;28.95;;
12214;SDS011;6170;42.206;24.142;2023-02-28T11:13:24;53.30;;;29.10;;
12214;SDS011;6170;42.206;24.142;2023-02-28T11:15:54;51.50;;;29.40;;
12214;SDS011;6170;42.206;24.142;2023-02-28T11:18:24;65.20;;;30.92;;
12214;SDS011;6170;42.206;24.142;2023-02-28T11:20:57;55.33;;;30.88;;
12214;SDS011;6170;42.206;24.142;2023-02-28T11:23:28;67.85;;;30.23;;
12214;SDS011;6170;42.206;24.142;2023-02-28T11:25:59;61.88;;;29.92;;
12214;SDS011;6170;42.206;24.142;2023-02-28T11:28:28;55.22;;;29.70;;
12214;SDS011;6170;42.206;24.142;2023-02-28T11:31:01;72.45;;;32.20;;
12214;SDS011;6170;42.206;24.142;2023-02-28T11:33:32;66.10;;;33.55;;
12214;SDS011;6170;42.206;24.142;2023-02-28T11:36:10;71.18;;;33.40;;
12214;SDS011;6170;42.206;24.142;2023-02-28T11:38:39;67.20;;;33.97;;
12214;SDS011;6170;42.206;24.142;2023-02-28T11:46:56;76.15;;;36.10;;
12214;SDS011;6170;42.206;24.142;2023-02-28T11:49:30;74.53;;;35.85;;
12214;SDS011;6170;42.206;24.142;2023-02-28T11:52:06;76.80;;;34.53;;
12214;SDS011;6170;42.206;24.142;2023-02-28T11:54:51;73.50;;;35.28;;
12214;SDS011;6170;42.206;24.142;2023-02-28T11:57:30;81.63;;;34.42;;
12214;SDS011;6170;42.206;24.142;2023-02-28T12:00:08;78.50;;;37.25;;
12214;SDS011;6170;42.206;24.142;2023-02-28T12:02:55;77.90;;;37.55;;
12214;SDS011;6170;42.206;24.142;2023-02-28T12:05:32;78.60;;;37.25;;
12214;SDS011;6170;42.206;24.142;2023-02-28T12:10:44;67.43;;;34.97;;
12214;SDS011;6170;42.206;24.142;2023-02-28T12:13:26;83.50;;;37.97;;
12214;SDS011;6170;42.206;24.142;2023-02-28T12:16:08;74.88;;;37.78;;
12214;SDS011;6170;42.206;24.142;2023-02-28T12:18:53;88.47;;;38.83;;
12214;SDS011;6170;42.206;24.142;2023-02-28T12:21:36;79.65;;;37.75;;
12214;SDS011;6170;42.206;24.142;2023-02-28T12:27:13;75.25;;;35.70;;
12214;SDS011;6170;42.206;24.142;2023-02-28T12:29:44;74.65;;;35.63;;
12214;SDS011;6170;42.206;24.142;2023-02-28T12:32:16;80.90;;;35.28;;
12214;SDS011;6170;42.206;24.142;2023-02-28T12:34:48;79.45;;;35.60;;
12214;SDS011;6170;42.206;24.142;2023-02-28T12:37:19;67.05;;;34.33;;
12214;SDS011;6170;42.206;24.142;2023-02-28T12:39:54;74.25;;;33.83;;
12214;SDS011;6170;42.206;24.142;2023-02-28T12:42:31;65.97;;;34.67;;
12214;SDS011;6170;42.206;24.142;2023-02-28T12:45:02;69.90;;;36.08;;
12214;SDS011;6170;42.206;24.142;2023-02-28T12:47:36;71.32;;;34.08;;
12214;SDS011;6170;42.206;24.142;2023-02-28T12:50:05;78.13;;;34.42;;
12214;SDS011;6170;42.206;24.142;2023-02-28T12:52:37;69.63;;;32.83;;
12214;SDS011;6170;42.206;24.142;2023-02-28T12:55:15;72.80;;;33.75;;
12214;SDS011;6170;42.206;24.142;2023-02-28T12:57:52;70.28;;;33.47;;
12214;SDS011;6170;42.206;24.142;2023-02-28T13:00:29;69.40;;;32.55;;
12214;SDS011;6170;42.206;24.142;2023-02-28T13:09:00;68.88;;;34.72;;
12214;SDS011;6170;42.206;24.142;2023-02-28T13:11:33;76.20;;;35.30;;
12214;SDS011;6170;42.206;24.142;2023-02-28T13:14:05;70.97;;;33.95;;
12214;SDS011;6170;42.206;24.142;2023-02-28T13:19:29;75.53;;;34.95;;
12214;SDS011;6170;42.206;24.142;2023-02-28T13:21:59;82.00;;;35.13;;
12214;SDS011;6170;42.206;24.142;2023-02-28T13:27:20;69.70;;;35.22;;
12214;SDS011;6170;42.206;24.142;2023-02-28T13:29:49;76.43;;;34.22;;
12214;SDS011;6170;42.206;24.142;2023-02-28T13:32:31;75.18;;;36.85;;
12214;SDS011;6170;42.206;24.142;2023-02-28T13:38:22;85.72;;;38.38;;
12214;SDS011;6170;42.206;24.142;2023-02-28T13:44:07;85.88;;;38.25;;
12214;SDS011;6170;42.206;24.142;2023-02-28T13:46:35;85.80;;;39.00;;
12214;SDS011;6170;42.206;24.142;2023-02-28T13:49:24;82.32;;;38.28;;
12214;SDS011;6170;42.206;24.142;2023-02-28T13:51:54;87.90;;;39.95;;
12214;SDS011;6170;42.206;24.142;2023-02-28T13:54:40;87.32;;;38.05;;
12214;SDS011;6170;42.206;24.142;2023-02-28T13:57:20;79.70;;;37.72;;
12214;SDS011;6170;42.206;24.142;2023-02-28T14:00:02;83.78;;;38.83;;
12214;SDS011;6170;42.206;24.142;2023-02-28T14:02:53;91.82;;;40.10;;
12214;SDS011;6170;42.206;24.142;2023-02-28T14:05:41;88.32;;;41.78;;
12214;SDS011;6170;42.206;24.142;2023-02-28T14:08:11;88.20;;;41.88;;
12214;SDS011;6170;42.206;24.142;2023-02-28T14:10:43;92.22;;;42.55;;
12214;SDS011;6170;42.206;24.142;2023-02-28T14:13:13;96.32;;;41.80;;
12214;SDS011;6170;42.206;24.142;2023-02-28T14:15:57;101.05;;;43.97;;
12214;SDS011;6170;42.206;24.142;2023-02-28T14:18:28;88.63;;;41.30;;
12214;SDS011;6170;42.206;24.142;2023-02-28T14:27:03;94.82;;;41.88;;
12214;SDS011;6170;42.206;24.142;2023-02-28T14:29:44;102.70;;;43.13;;
12214;SDS011;6170;42.206;24.142;2023-02-28T14:32:43;93.88;;;43.00;;
12214;SDS011;6170;42.206;24.142;2023-02-28T14:35:22;94.60;;;42.80;;
12214;SDS011;6170;42.206;24.142;2023-02-28T14:38:07;105.43;;;44.67;;
12214;SDS011;6170;42.206;24.142;2023-02-28T14:40:42;107.70;;;43.75;;
12214;SDS011;6170;42.206;24.142;2023-02-28T14:43:18;102.50;;;44.03;;
12214;SDS011;6170;42.206;24.142;2023-02-28T14:45:49;103.82;;;45.47;;
12214;SDS011;6170;42.206;24.142;2023-02-28T14:48:19;102.45;;;45.60;;
12214;SDS011;6170;42.206;24.142;2023-02-28T14:50:48;94.28;;;42.67;;
12214;SDS011;6170;42.206;24.142;2023-02-28T14:53:17;78.30;;;37.10;;
12214;SDS011;6170;42.206;24.142;2023-02-28T14:55:47;73.38;;;36.17;;
12214;SDS011;6170;42.206;24.142;2023-02-28T14:58:27;78.47;;;36.75;;
12214;SDS011;6170;42.206;24.142;2023-02-28T15:00:57;73.45;;;35.25;;
12214;SDS011;6170;42.206;24.142;2023-02-28T15:03:29;77.65;;;37.63;;
12214;SDS011;6170;42.206;24.142;2023-02-28T15:05:59;64.63;;;33.03;;
12214;SDS011;6170;42.206;24.142;2023-02-28T15:08:27;57.70;;;31.25;;
12214;SDS011;6170;42.206;24.142;2023-02-28T15:10:57;59.72;;;30.13;;
12214;SDS011;6170;42.206;24.142;2023-02-28T15:13:29;60.22;;;31.30;;
12214;SDS011;6170;42.206;24.142;2023-02-28T15:16:02;63.85;;;32.33;;
12214;SDS011;6170;42.206;24.142;2023-02-28T15:18:40;58.38;;;33.10;;
12214;SDS011;6170;42.206;24.142;2023-02-28T15:21:14;56.15;;;30.58;;
12214;SDS011;6170;42.206;24.142;2023-02-28T15:23:44;54.80;;;29.92;;
12214;SDS011;6170;42.206;24.142;2023-02-28T15:26:16;55.58;;;29.67;;
12214;SDS011;6170;42.206;24.142;2023-02-28T15:28:48;53.58;;;30.45;;